sensor_id;sensor_type;location;lat;lon;timestamp;P1;durP1;ratioP1;P2;durP2;ratioP2
71125;SDS011;58785;55.566;38.058;2023-03-13T00:01:17;2.97;;;0.60;;
71125;SDS011;58785;55.566;38.058;2023-03-13T00:04:01;1.90;;;0.20;;
71125;SDS011;58785;55.566;38.058;2023-03-13T00:06:28;1.70;;;0.32;;
71125;SDS011;58785;55.566;38.058;2023-03-13T00:08:57;1.47;;;0.30;;
71125;SDS011;58785;55.566;38.058;2023-03-13T00:11:24;1.38;;;0.20;;
71125;SDS011;58785;55.566;38.058;2023-03-13T00:13:54;2.35;;;0.20;;
71125;SDS011;58785;55.566;38.058;2023-03-13T00:16:21;2.45;;;0.40;;
71125;SDS011;58785;55.566;38.058;2023-03-13T00:18:48;3.17;;;0.50;;
71125;SDS011;58785;55.566;38.058;2023-03-13T00:21:15;0.90;;;0.10;;
71125;SDS011;58785;55.566;38.058;2023-03-13T00:23:42;3.88;;;0.47;;
71125;SDS011;58785;55.566;38.058;2023-03-13T00:26:09;2.30;;;0.32;;
71125;SDS011;58785;55.566;38.058;2023-03-13T00:28:37;2.65;;;0.60;;
71125;SDS011;58785;55.566;38.058;2023-03-13T00:33:34;1.77;;;0.50;;
71125;SDS011;58785;55.566;38.058;2023-03-13T00:36:01;1.52;;;0.30;;
71125;SDS011;58785;55.566;38.058;2023-03-13T00:38:29;2.55;;;0.30;;
71125;SDS011;58785;55.566;38.058;2023-03-13T00:41:05;4.60;;;0.50;;
71125;SDS011;58785;55.566;38.058;2023-03-13T00:43:33;1.70;;;0.30;;
71125;SDS011;58785;55.566;38.058;2023-03-13T00:45:59;1.30;;;0.20;;
71125;SDS011;58785;55.566;38.058;2023-03-13T00:48:26;5.00;;;0.43;;
71125;SDS011;58785;55.566;38.058;2023-03-13T00:50:52;2.10;;;0.20;;
71125;SDS011;58785;55.566;38.058;2023-03-13T00:53:18;2.97;;;0.68;;
71125;SDS011;58785;55.566;38.058;2023-03-13T00:55:53;3.65;;;0.60;;
71125;SDS011;58785;55.566;38.058;2023-03-13T00:58:23;1.60;;;0.30;;
71125;SDS011;58785;55.566;38.058;2023-03-13T01:00:51;2.72;;;0.40;;
71125;SDS011;58785;55.566;38.058;2023-03-13T01:03:17;2.80;;;0.52;;
71125;SDS011;58785;55.566;38.058;2023-03-13T01:05:43;2.85;;;0.63;;
71125;SDS011;58785;55.566;38.058;2023-03-13T01:08:09;2.70;;;0.50;;
71125;SDS011;58785;55.566;38.058;2023-03-13T01:10:35;3.88;;;0.50;;
71125;SDS011;58785;55.566;38.058;2023-03-13T01:13:00;3.00;;;0.50;;
71125;SDS011;58785;55.566;38.058;2023-03-13T01:15:29;3.60;;;0.80;;
71125;SDS011;58785;55.566;38.058;2023-03-13T01:17:55;7.20;;;0.77;;
71125;SDS011;58785;55.566;38.058;2023-03-13T01:20:20;2.30;;;0.45;;
71125;SDS011;58785;55.566;38.058;2023-03-13T01:22:46;3.17;;;0.50;;
71125;SDS011;58785;55.566;38.058;2023-03-13T01:25:12;3.93;;;0.87;;
71125;SDS011;58785;55.566;38.058;2023-03-13T01:27:37;3.03;;;0.60;;
71125;SDS011;58785;55.566;38.058;2023-03-13T01:30:03;3.03;;;0.53;;
71125;SDS011;58785;55.566;38.058;2023-03-13T01:32:31;3.05;;;0.50;;
71125;SDS011;58785;55.566;38.058;2023-03-13T01:34:57;3.30;;;0.57;;
71125;SDS011;58785;55.566;38.058;2023-03-13T01:37:23;2.93;;;0.50;;
71125;SDS011;58785;55.566;38.058;2023-03-13T01:39:48;2.97;;;0.50;;
71125;SDS011;58785;55.566;38.058;2023-03-13T01:42:14;1.53;;;0.30;;
71125;SDS011;58785;55.566;38.058;2023-03-13T01:44:53;1.25;;;0.15;;
71125;SDS011;58785;55.566;38.058;2023-03-13T01:47:20;2.50;;;0.40;;
71125;SDS011;58785;55.566;38.058;2023-03-13T01:49:46;1.65;;;0.30;;
71125;SDS011;58785;55.566;38.058;2023-03-13T01:52:16;1.65;;;0.30;;
71125;SDS011;58785;55.566;38.058;2023-03-13T01:54:46;3.45;;;0.32;;
71125;SDS011;58785;55.566;38.058;2023-03-13T02:02:18;1.40;;;0.20;;
71125;SDS011;58785;55.566;38.058;2023-03-13T02:04:49;1.75;;;0.20;;
71125;SDS011;58785;55.566;38.058;2023-03-13T02:07:25;3.03;;;0.75;;
71125;SDS011;58785;55.566;38.058;2023-03-13T02:09:55;2.17;;;0.43;;
71125;SDS011;58785;55.566;38.058;2023-03-13T02:12:31;1.53;;;0.20;;
71125;SDS011;58785;55.566;38.058;2023-03-13T02:14:59;2.05;;;0.20;;
71125;SDS011;58785;55.566;38.058;2023-03-13T02:17:28;2.63;;;0.35;;
71125;SDS011;58785;55.566;38.058;2023-03-13T02:19:54;3.78;;;0.40;;
71125;SDS011;58785;55.566;38.058;2023-03-13T02:27:54;2.77;;;0.40;;
71125;SDS011;58785;55.566;38.058;2023-03-13T02:30:24;1.92;;;0.10;;
71125;SDS011;58785;55.566;38.058;2023-03-13T02:32:51;2.35;;;0.50;;
71125;SDS011;58785;55.566;38.058;2023-03-13T02:35:17;1.80;;;0.30;;
71125;SDS011;58785;55.566;38.058;2023-03-13T02:38:04;2.67;;;0.40;;
71125;SDS011;58785;55.566;38.058;2023-03-13T02:40:40;2.15;;;0.40;;
71125;SDS011;58785;55.566;38.058;2023-03-13T02:43:31;1.35;;;0.20;;
71125;SDS011;58785;55.566;38.058;2023-03-13T02:45:59;2.50;;;0.30;;
71125;SDS011;58785;55.566;38.058;2023-03-13T02:48:34;1.90;;;0.20;;
71125;SDS011;58785;55.566;38.058;2023-03-13T02:51:17;1.85;;;0.52;;
71125;SDS011;58785;55.566;38.058;2023-03-13T02:53:50;1.05;;;0.20;;
71125;SDS011;58785;55.566;38.058;2023-03-13T02:56:19;2.63;;;0.70;;
71125;SDS011;58785;55.566;38.058;2023-03-13T02:58:46;1.90;;;0.30;;
71125;SDS011;58785;55.566;38.058;2023-03-13T03:01:12;1.27;;;0.23;;
71125;SDS011;58785;55.566;38.058;2023-03-13T03:03:37;1.73;;;0.57;;
71125;SDS011;58785;55.566;38.058;2023-03-13T03:06:04;3.83;;;0.50;;
71125;SDS011;58785;55.566;38.058;2023-03-13T03:08:31;1.92;;;0.40;;
71125;SDS011;58785;55.566;38.058;2023-03-13T03:10:57;1.33;;;0.22;;
71125;SDS011;58785;55.566;38.058;2023-03-13T03:13:23;1.73;;;0.30;;
71125;SDS011;58785;55.566;38.058;2023-03-13T03:15:48;1.60;;;0.30;;
71125;SDS011;58785;55.566;38.058;2023-03-13T03:18:14;2.42;;;0.43;;
71125;SDS011;58785;55.566;38.058;2023-03-13T03:20:40;2.35;;;0.30;;
71125;SDS011;58785;55.566;38.058;2023-03-13T03:23:06;3.20;;;0.47;;
71125;SDS011;58785;55.566;38.058;2023-03-13T03:25:31;2.80;;;0.20;;
71125;SDS011;58785;55.566;38.058;2023-03-13T03:27:57;1.90;;;0.30;;
71125;SDS011;58785;55.566;38.058;2023-03-13T03:30:23;2.10;;;0.20;;
71125;SDS011;58785;55.566;38.058;2023-03-13T03:32:48;1.70;;;0.30;;
71125;SDS011;58785;55.566;38.058;2023-03-13T03:35:14;2.17;;;0.30;;
71125;SDS011;58785;55.566;38.058;2023-03-13T03:37:39;2.08;;;0.20;;
71125;SDS011;58785;55.566;38.058;2023-03-13T03:40:05;1.97;;;0.50;;
71125;SDS011;58785;55.566;38.058;2023-03-13T03:42:32;2.38;;;0.30;;
71125;SDS011;58785;55.566;38.058;2023-03-13T03:44:58;1.98;;;0.30;;
71125;SDS011;58785;55.566;38.058;2023-03-13T03:47:24;3.87;;;0.60;;
71125;SDS011;58785;55.566;38.058;2023-03-13T03:49:49;1.93;;;0.40;;
71125;SDS011;58785;55.566;38.058;2023-03-13T03:52:15;2.47;;;0.30;;
71125;SDS011;58785;55.566;38.058;2023-03-13T03:54:41;2.15;;;0.30;;
71125;SDS011;58785;55.566;38.058;2023-03-13T03:57:07;2.50;;;0.53;;
71125;SDS011;58785;55.566;38.058;2023-03-13T03:59:33;2.83;;;0.65;;
71125;SDS011;58785;55.566;38.058;2023-03-13T04:01:58;2.13;;;0.40;;
71125;SDS011;58785;55.566;38.058;2023-03-13T04:04:24;1.75;;;0.30;;
71125;SDS011;58785;55.566;38.058;2023-03-13T04:06:50;1.23;;;0.20;;
71125;SDS011;58785;55.566;38.058;2023-03-13T04:09:15;1.75;;;0.30;;
71125;SDS011;58785;55.566;38.058;2023-03-13T04:11:41;1.83;;;0.30;;
71125;SDS011;58785;55.566;38.058;2023-03-13T04:14:07;1.50;;;0.20;;
71125;SDS011;58785;55.566;38.058;2023-03-13T04:16:33;1.65;;;0.30;;
71125;SDS011;58785;55.566;38.058;2023-03-13T04:19:00;5.10;;;0.40;;
71125;SDS011;58785;55.566;38.058;2023-03-13T04:21:25;1.47;;;0.30;;
71125;SDS011;58785;55.566;38.058;2023-03-13T04:23:51;2.05;;;0.30;;
71125;SDS011;58785;55.566;38.058;2023-03-13T04:26:17;2.13;;;0.33;;
71125;SDS011;58785;55.566;38.058;2023-03-13T04:28:42;1.67;;;0.50;;
71125;SDS011;58785;55.566;38.058;2023-03-13T04:31:08;2.07;;;0.40;;
71125;SDS011;58785;55.566;38.058;2023-03-13T04:33:34;4.17;;;0.50;;
71125;SDS011;58785;55.566;38.058;2023-03-13T04:36:01;2.60;;;0.52;;
71125;SDS011;58785;55.566;38.058;2023-03-13T04:38:27;2.03;;;0.52;;
71125;SDS011;58785;55.566;38.058;2023-03-13T04:40:52;2.23;;;0.50;;
71125;SDS011;58785;55.566;38.058;2023-03-13T04:43:18;2.80;;;0.45;;
71125;SDS011;58785;55.566;38.058;2023-03-13T04:45:44;1.87;;;0.30;;
71125;SDS011;58785;55.566;38.058;2023-03-13T04:48:10;4.07;;;0.70;;
71125;SDS011;58785;55.566;38.058;2023-03-13T04:50:36;2.42;;;0.40;;
71125;SDS011;58785;55.566;38.058;2023-03-13T04:53:02;1.70;;;0.37;;
71125;SDS011;58785;55.566;38.058;2023-03-13T04:55:27;3.35;;;0.60;;
71125;SDS011;58785;55.566;38.058;2023-03-13T04:57:53;3.23;;;0.67;;
71125;SDS011;58785;55.566;38.058;2023-03-13T05:00:19;2.97;;;0.60;;
71125;SDS011;58785;55.566;38.058;2023-03-13T05:02:45;3.42;;;0.47;;
71125;SDS011;58785;55.566;38.058;2023-03-13T05:05:10;2.47;;;0.40;;
71125;SDS011;58785;55.566;38.058;2023-03-13T05:07:36;3.43;;;0.53;;
71125;SDS011;58785;55.566;38.058;2023-03-13T05:10:02;2.38;;;0.50;;
71125;SDS011;58785;55.566;38.058;2023-03-13T05:12:28;2.67;;;0.50;;
71125;SDS011;58785;55.566;38.058;2023-03-13T05:14:53;3.13;;;0.50;;
71125;SDS011;58785;55.566;38.058;2023-03-13T05:17:19;2.40;;;0.50;;
71125;SDS011;58785;55.566;38.058;2023-03-13T05:19:45;1.73;;;0.40;;
71125;SDS011;58785;55.566;38.058;2023-03-13T05:22:10;2.07;;;0.33;;
71125;SDS011;58785;55.566;38.058;2023-03-13T05:24:36;2.17;;;0.30;;
71125;SDS011;58785;55.566;38.058;2023-03-13T05:27:01;3.20;;;0.50;;
71125;SDS011;58785;55.566;38.058;2023-03-13T05:29:27;2.97;;;0.63;;
71125;SDS011;58785;55.566;38.058;2023-03-13T05:31:53;2.80;;;0.50;;
71125;SDS011;58785;55.566;38.058;2023-03-13T05:34:18;2.50;;;0.30;;
71125;SDS011;58785;55.566;38.058;2023-03-13T05:36:44;1.47;;;0.30;;
71125;SDS011;58785;55.566;38.058;2023-03-13T05:39:09;1.50;;;0.20;;
71125;SDS011;58785;55.566;38.058;2023-03-13T05:41:35;1.35;;;0.10;;
71125;SDS011;58785;55.566;38.058;2023-03-13T05:44:00;2.20;;;0.30;;
71125;SDS011;58785;55.566;38.058;2023-03-13T05:46:26;2.95;;;0.57;;
71125;SDS011;58785;55.566;38.058;2023-03-13T05:48:52;2.77;;;0.37;;
71125;SDS011;58785;55.566;38.058;2023-03-13T05:51:17;2.22;;;0.45;;
71125;SDS011;58785;55.566;38.058;2023-03-13T05:53:43;3.57;;;0.30;;
71125;SDS011;58785;55.566;38.058;2023-03-13T05:56:09;2.40;;;0.47;;
71125;SDS011;58785;55.566;38.058;2023-03-13T05:58:35;4.63;;;0.50;;
71125;SDS011;58785;55.566;38.058;2023-03-13T06:01:07;2.58;;;0.40;;
71125;SDS011;58785;55.566;38.058;2023-03-13T06:03:34;2.08;;;0.47;;
71125;SDS011;58785;55.566;38.058;2023-03-13T06:06:00;2.13;;;0.60;;
71125;SDS011;58785;55.566;38.058;2023-03-13T06:08:26;3.42;;;0.50;;
71125;SDS011;58785;55.566;38.058;2023-03-13T06:10:52;2.28;;;0.40;;
71125;SDS011;58785;55.566;38.058;2023-03-13T06:13:17;3.63;;;0.97;;
71125;SDS011;58785;55.566;38.058;2023-03-13T06:15:49;3.00;;;0.52;;
71125;SDS011;58785;55.566;38.058;2023-03-13T06:18:16;3.22;;;0.60;;
71125;SDS011;58785;55.566;38.058;2023-03-13T06:20:41;2.87;;;0.30;;
71125;SDS011;58785;55.566;38.058;2023-03-13T06:23:07;3.55;;;0.80;;
71125;SDS011;58785;55.566;38.058;2023-03-13T06:25:33;4.00;;;0.50;;
71125;SDS011;58785;55.566;38.058;2023-03-13T06:27:59;3.25;;;0.50;;
71125;SDS011;58785;55.566;38.058;2023-03-13T06:30:25;2.67;;;0.60;;
71125;SDS011;58785;55.566;38.058;2023-03-13T06:32:50;3.00;;;0.40;;
71125;SDS011;58785;55.566;38.058;2023-03-13T06:35:16;4.17;;;0.90;;
71125;SDS011;58785;55.566;38.058;2023-03-13T06:37:42;2.10;;;0.40;;
71125;SDS011;58785;55.566;38.058;2023-03-13T06:40:08;3.85;;;0.60;;
71125;SDS011;58785;55.566;38.058;2023-03-13T06:42:35;4.17;;;0.80;;
71125;SDS011;58785;55.566;38.058;2023-03-13T06:45:01;2.47;;;0.40;;
71125;SDS011;58785;55.566;38.058;2023-03-13T06:47:30;3.63;;;0.80;;
71125;SDS011;58785;55.566;38.058;2023-03-13T06:53:37;3.53;;;0.80;;
71125;SDS011;58785;55.566;38.058;2023-03-13T06:56:02;4.35;;;0.70;;
71125;SDS011;58785;55.566;38.058;2023-03-13T06:58:28;4.63;;;0.77;;
71125;SDS011;58785;55.566;38.058;2023-03-13T07:00:54;4.32;;;0.60;;
71125;SDS011;58785;55.566;38.058;2023-03-13T07:03:20;4.37;;;0.93;;
71125;SDS011;58785;55.566;38.058;2023-03-13T07:05:45;4.47;;;0.87;;
71125;SDS011;58785;55.566;38.058;2023-03-13T07:08:11;4.17;;;0.80;;
71125;SDS011;58785;55.566;38.058;2023-03-13T07:10:37;5.93;;;0.90;;
71125;SDS011;58785;55.566;38.058;2023-03-13T07:13:02;4.17;;;0.60;;
71125;SDS011;58785;55.566;38.058;2023-03-13T07:15:28;4.35;;;0.85;;
71125;SDS011;58785;55.566;38.058;2023-03-13T07:17:55;2.70;;;0.50;;
71125;SDS011;58785;55.566;38.058;2023-03-13T07:20:22;4.40;;;0.85;;
71125;SDS011;58785;55.566;38.058;2023-03-13T07:22:51;3.38;;;0.70;;
71125;SDS011;58785;55.566;38.058;2023-03-13T07:25:18;3.57;;;0.70;;
71125;SDS011;58785;55.566;38.058;2023-03-13T07:27:44;4.35;;;0.70;;
71125;SDS011;58785;55.566;38.058;2023-03-13T07:30:09;3.63;;;0.88;;
71125;SDS011;58785;55.566;38.058;2023-03-13T07:32:35;4.53;;;0.80;;
71125;SDS011;58785;55.566;38.058;2023-03-13T07:35:01;3.97;;;0.63;;
71125;SDS011;58785;55.566;38.058;2023-03-13T07:37:28;4.20;;;1.00;;
71125;SDS011;58785;55.566;38.058;2023-03-13T07:39:54;2.47;;;0.60;;
71125;SDS011;58785;55.566;38.058;2023-03-13T07:42:20;3.17;;;0.80;;
71125;SDS011;58785;55.566;38.058;2023-03-13T07:44:46;3.30;;;0.73;;
71125;SDS011;58785;55.566;38.058;2023-03-13T07:47:11;3.90;;;0.75;;
71125;SDS011;58785;55.566;38.058;2023-03-13T07:49:37;2.70;;;0.57;;
71125;SDS011;58785;55.566;38.058;2023-03-13T07:52:06;4.22;;;0.75;;
71125;SDS011;58785;55.566;38.058;2023-03-13T07:54:31;3.70;;;0.90;;
71125;SDS011;58785;55.566;38.058;2023-03-13T07:56:57;4.70;;;1.00;;
71125;SDS011;58785;55.566;38.058;2023-03-13T07:59:23;3.87;;;0.97;;
71125;SDS011;58785;55.566;38.058;2023-03-13T08:01:48;5.60;;;0.90;;
71125;SDS011;58785;55.566;38.058;2023-03-13T08:04:14;3.20;;;0.70;;
71125;SDS011;58785;55.566;38.058;2023-03-13T08:06:40;4.22;;;1.10;;
71125;SDS011;58785;55.566;38.058;2023-03-13T08:09:06;3.08;;;0.60;;
71125;SDS011;58785;55.566;38.058;2023-03-13T08:11:32;2.83;;;0.50;;
71125;SDS011;58785;55.566;38.058;2023-03-13T08:13:58;4.72;;;0.88;;
71125;SDS011;58785;55.566;38.058;2023-03-13T08:16:25;3.50;;;1.00;;
71125;SDS011;58785;55.566;38.058;2023-03-13T08:18:56;3.20;;;0.73;;
71125;SDS011;58785;55.566;38.058;2023-03-13T08:21:24;4.45;;;0.88;;
71125;SDS011;58785;55.566;38.058;2023-03-13T08:23:54;4.10;;;0.73;;
71125;SDS011;58785;55.566;38.058;2023-03-13T08:26:22;3.10;;;0.68;;
71125;SDS011;58785;55.566;38.058;2023-03-13T08:28:53;3.40;;;0.93;;
71125;SDS011;58785;55.566;38.058;2023-03-13T08:31:37;4.50;;;1.10;;
71125;SDS011;58785;55.566;38.058;2023-03-13T08:34:06;5.22;;;1.00;;
71125;SDS011;58785;55.566;38.058;2023-03-13T08:36:35;3.40;;;0.57;;
71125;SDS011;58785;55.566;38.058;2023-03-13T08:39:04;4.93;;;0.90;;
71125;SDS011;58785;55.566;38.058;2023-03-13T08:41:32;5.55;;;1.00;;
71125;SDS011;58785;55.566;38.058;2023-03-13T08:44:04;4.22;;;0.85;;
71125;SDS011;58785;55.566;38.058;2023-03-13T08:46:32;4.43;;;0.70;;
71125;SDS011;58785;55.566;38.058;2023-03-13T08:48:59;3.95;;;0.75;;
71125;SDS011;58785;55.566;38.058;2023-03-13T08:51:26;4.43;;;0.60;;
71125;SDS011;58785;55.566;38.058;2023-03-13T08:53:53;3.90;;;0.60;;
71125;SDS011;58785;55.566;38.058;2023-03-13T08:56:21;5.15;;;0.90;;
71125;SDS011;58785;55.566;38.058;2023-03-13T08:58:49;3.80;;;0.70;;
71125;SDS011;58785;55.566;38.058;2023-03-13T09:01:16;3.50;;;0.60;;
71125;SDS011;58785;55.566;38.058;2023-03-13T09:03:42;3.57;;;0.57;;
71125;SDS011;58785;55.566;38.058;2023-03-13T09:06:08;3.30;;;0.55;;
71125;SDS011;58785;55.566;38.058;2023-03-13T09:08:36;6.20;;;0.70;;
71125;SDS011;58785;55.566;38.058;2023-03-13T09:11:03;2.57;;;0.47;;
71125;SDS011;58785;55.566;38.058;2023-03-13T09:13:31;2.80;;;0.60;;
71125;SDS011;58785;55.566;38.058;2023-03-13T09:16:06;3.78;;;0.75;;
71125;SDS011;58785;55.566;38.058;2023-03-13T09:18:33;4.60;;;0.80;;
71125;SDS011;58785;55.566;38.058;2023-03-13T09:20:59;3.30;;;0.60;;
71125;SDS011;58785;55.566;38.058;2023-03-13T09:23:26;4.87;;;0.70;;
71125;SDS011;58785;55.566;38.058;2023-03-13T09:25:52;4.35;;;0.70;;
71125;SDS011;58785;55.566;38.058;2023-03-13T09:28:19;3.13;;;0.70;;
71125;SDS011;58785;55.566;38.058;2023-03-13T09:30:45;4.17;;;0.70;;
71125;SDS011;58785;55.566;38.058;2023-03-13T09:33:11;5.68;;;1.15;;
71125;SDS011;58785;55.566;38.058;2023-03-13T09:35:39;8.60;;;1.53;;
71125;SDS011;58785;55.566;38.058;2023-03-13T09:38:05;6.15;;;1.67;;
71125;SDS011;58785;55.566;38.058;2023-03-13T09:40:35;4.88;;;1.08;;
71125;SDS011;58785;55.566;38.058;2023-03-13T09:43:10;3.50;;;0.80;;
71125;SDS011;58785;55.566;38.058;2023-03-13T09:45:50;3.37;;;0.60;;
71125;SDS011;58785;55.566;38.058;2023-03-13T09:51:05;3.95;;;0.77;;
71125;SDS011;58785;55.566;38.058;2023-03-13T09:53:56;5.03;;;1.08;;
71125;SDS011;58785;55.566;38.058;2023-03-13T09:56:29;2.70;;;0.60;;
71125;SDS011;58785;55.566;38.058;2023-03-13T09:59:04;4.73;;;0.80;;
71125;SDS011;58785;55.566;38.058;2023-03-13T10:01:45;3.80;;;0.85;;
71125;SDS011;58785;55.566;38.058;2023-03-13T10:07:12;6.05;;;1.00;;
71125;SDS011;58785;55.566;38.058;2023-03-13T10:09:38;4.00;;;0.65;;
71125;SDS011;58785;55.566;38.058;2023-03-13T10:14:39;4.72;;;1.00;;
71125;SDS011;58785;55.566;38.058;2023-03-13T10:19:59;3.60;;;0.80;;
71125;SDS011;58785;55.566;38.058;2023-03-13T10:22:47;3.63;;;0.70;;
71125;SDS011;58785;55.566;38.058;2023-03-13T10:25:20;4.28;;;0.90;;
71125;SDS011;58785;55.566;38.058;2023-03-13T10:27:52;3.67;;;0.73;;
71125;SDS011;58785;55.566;38.058;2023-03-13T10:30:23;4.15;;;1.08;;
71125;SDS011;58785;55.566;38.058;2023-03-13T10:33:39;3.20;;;0.70;;
71125;SDS011;58785;55.566;38.058;2023-03-13T10:35:44;6.93;;;1.17;;
71125;SDS011;58785;55.566;38.058;2023-03-13T10:38:11;5.22;;;1.00;;
71125;SDS011;58785;55.566;38.058;2023-03-13T10:41:00;3.70;;;0.80;;
71125;SDS011;58785;55.566;38.058;2023-03-13T10:43:32;3.28;;;0.80;;
71125;SDS011;58785;55.566;38.058;2023-03-13T10:45:58;3.43;;;0.80;;
71125;SDS011;58785;55.566;38.058;2023-03-13T10:48:24;6.20;;;0.60;;
71125;SDS011;58785;55.566;38.058;2023-03-13T10:50:54;4.93;;;0.80;;
71125;SDS011;58785;55.566;38.058;2023-03-13T10:56:14;4.57;;;0.80;;
71125;SDS011;58785;55.566;38.058;2023-03-13T10:58:41;3.45;;;0.80;;
71125;SDS011;58785;55.566;38.058;2023-03-13T11:03:43;4.22;;;0.70;;
71125;SDS011;58785;55.566;38.058;2023-03-13T11:06:28;5.13;;;1.23;;
71125;SDS011;58785;55.566;38.058;2023-03-13T11:11:45;3.65;;;0.68;;
71125;SDS011;58785;55.566;38.058;2023-03-13T11:14:20;4.57;;;0.80;;
71125;SDS011;58785;55.566;38.058;2023-03-13T11:16:48;3.63;;;0.80;;
71125;SDS011;58785;55.566;38.058;2023-03-13T11:22:18;3.40;;;0.80;;
71125;SDS011;58785;55.566;38.058;2023-03-13T11:32:59;2.95;;;0.57;;
71125;SDS011;58785;55.566;38.058;2023-03-13T11:44:29;4.22;;;0.80;;
71125;SDS011;58785;55.566;38.058;2023-03-13T11:47:04;3.90;;;0.82;;
71125;SDS011;58785;55.566;38.058;2023-03-13T12:01:18;3.80;;;0.90;;
71125;SDS011;58785;55.566;38.058;2023-03-13T12:06:42;3.60;;;0.65;;
71125;SDS011;58785;55.566;38.058;2023-03-13T12:09:24;4.75;;;0.75;;
71125;SDS011;58785;55.566;38.058;2023-03-13T12:12:45;6.97;;;0.85;;
71125;SDS011;58785;55.566;38.058;2023-03-13T12:17:48;3.90;;;0.83;;
71125;SDS011;58785;55.566;38.058;2023-03-13T12:23:18;4.88;;;0.90;;
71125;SDS011;58785;55.566;38.058;2023-03-13T12:31:37;4.97;;;0.87;;
71125;SDS011;58785;55.566;38.058;2023-03-13T12:41:59;4.03;;;0.98;;
71125;SDS011;58785;55.566;38.058;2023-03-13T12:44:41;3.10;;;0.63;;
71125;SDS011;58785;55.566;38.058;2023-03-13T12:49:40;3.63;;;0.85;;
71125;SDS011;58785;55.566;38.058;2023-03-13T12:52:44;2.57;;;0.60;;
71125;SDS011;58785;55.566;38.058;2023-03-13T12:55:44;3.03;;;0.70;;
71125;SDS011;58785;55.566;38.058;2023-03-13T12:58:39;3.55;;;0.80;;
71125;SDS011;58785;55.566;38.058;2023-03-13T13:01:12;3.13;;;0.70;;
71125;SDS011;58785;55.566;38.058;2023-03-13T13:07:04;2.37;;;0.60;;
71125;SDS011;58785;55.566;38.058;2023-03-13T13:09:32;4.28;;;0.73;;
71125;SDS011;58785;55.566;38.058;2023-03-13T13:12:19;4.88;;;0.80;;
71125;SDS011;58785;55.566;38.058;2023-03-13T13:19:44;4.97;;;0.75;;
71125;SDS011;58785;55.566;38.058;2023-03-13T13:28:21;3.27;;;0.90;;
71125;SDS011;58785;55.566;38.058;2023-03-13T13:30:51;3.00;;;0.52;;
71125;SDS011;58785;55.566;38.058;2023-03-13T13:36:24;3.70;;;0.75;;
71125;SDS011;58785;55.566;38.058;2023-03-13T13:38:45;2.85;;;0.57;;
71125;SDS011;58785;55.566;38.058;2023-03-13T13:43:38;2.10;;;0.30;;
71125;SDS011;58785;55.566;38.058;2023-03-13T13:51:33;3.83;;;0.68;;
71125;SDS011;58785;55.566;38.058;2023-03-13T13:54:02;2.65;;;0.43;;
71125;SDS011;58785;55.566;38.058;2023-03-13T13:56:54;3.30;;;0.50;;
71125;SDS011;58785;55.566;38.058;2023-03-13T14:07:17;2.28;;;0.30;;
71125;SDS011;58785;55.566;38.058;2023-03-13T14:09:51;3.33;;;0.52;;
71125;SDS011;58785;55.566;38.058;2023-03-13T14:12:25;2.80;;;0.50;;
71125;SDS011;58785;55.566;38.058;2023-03-13T14:17:49;2.63;;;0.50;;
71125;SDS011;58785;55.566;38.058;2023-03-13T14:20:19;2.10;;;0.40;;
71125;SDS011;58785;55.566;38.058;2023-03-13T14:22:52;2.85;;;0.60;;
71125;SDS011;58785;55.566;38.058;2023-03-13T14:25:21;2.97;;;0.50;;
71125;SDS011;58785;55.566;38.058;2023-03-13T14:27:49;3.47;;;0.70;;
71125;SDS011;58785;55.566;38.058;2023-03-13T14:30:16;3.65;;;0.75;;
71125;SDS011;58785;55.566;38.058;2023-03-13T14:32:44;3.97;;;0.60;;
71125;SDS011;58785;55.566;38.058;2023-03-13T14:35:12;2.42;;;0.50;;
71125;SDS011;58785;55.566;38.058;2023-03-13T14:37:41;2.27;;;0.30;;
71125;SDS011;58785;55.566;38.058;2023-03-13T14:40:19;2.83;;;0.40;;
71125;SDS011;58785;55.566;38.058;2023-03-13T14:42:49;2.13;;;0.30;;
71125;SDS011;58785;55.566;38.058;2023-03-13T14:45:35;4.05;;;0.55;;
71125;SDS011;58785;55.566;38.058;2023-03-13T14:48:02;4.50;;;0.73;;
71125;SDS011;58785;55.566;38.058;2023-03-13T14:50:34;4.27;;;0.97;;
71125;SDS011;58785;55.566;38.058;2023-03-13T14:53:02;3.25;;;0.70;;
71125;SDS011;58785;55.566;38.058;2023-03-13T14:55:35;3.92;;;0.60;;
71125;SDS011;58785;55.566;38.058;2023-03-13T15:00:49;3.50;;;0.70;;
71125;SDS011;58785;55.566;38.058;2023-03-13T15:08:14;2.60;;;0.47;;
71125;SDS011;58785;55.566;38.058;2023-03-13T15:10:40;3.45;;;0.40;;
71125;SDS011;58785;55.566;38.058;2023-03-13T15:13:40;2.75;;;0.50;;
71125;SDS011;58785;55.566;38.058;2023-03-13T15:16:02;3.78;;;0.80;;
71125;SDS011;58785;55.566;38.058;2023-03-13T15:18:37;2.45;;;0.30;;
71125;SDS011;58785;55.566;38.058;2023-03-13T15:23:34;2.90;;;0.55;;
71125;SDS011;58785;55.566;38.058;2023-03-13T15:26:00;3.80;;;0.57;;
71125;SDS011;58785;55.566;38.058;2023-03-13T15:28:26;2.80;;;0.50;;
71125;SDS011;58785;55.566;38.058;2023-03-13T15:30:51;4.73;;;0.47;;
71125;SDS011;58785;55.566;38.058;2023-03-13T15:33:18;4.47;;;0.60;;
71125;SDS011;58785;55.566;38.058;2023-03-13T15:35:46;2.97;;;0.40;;
71125;SDS011;58785;55.566;38.058;2023-03-13T15:38:16;5.43;;;0.60;;
71125;SDS011;58785;55.566;38.058;2023-03-13T15:40:46;8.80;;;0.82;;
71125;SDS011;58785;55.566;38.058;2023-03-13T15:43:12;3.85;;;0.70;;
71125;SDS011;58785;55.566;38.058;2023-03-13T15:45:39;2.58;;;0.52;;
71125;SDS011;58785;55.566;38.058;2023-03-13T15:48:20;4.27;;;0.83;;
71125;SDS011;58785;55.566;38.058;2023-03-13T15:50:57;5.88;;;0.57;;
71125;SDS011;58785;55.566;38.058;2023-03-13T15:53:25;2.42;;;0.38;;
71125;SDS011;58785;55.566;38.058;2023-03-13T15:55:54;4.15;;;0.40;;
71125;SDS011;58785;55.566;38.058;2023-03-13T15:58:23;2.83;;;0.57;;
71125;SDS011;58785;55.566;38.058;2023-03-13T16:00:50;2.83;;;0.50;;
71125;SDS011;58785;55.566;38.058;2023-03-13T16:03:17;2.80;;;0.57;;
71125;SDS011;58785;55.566;38.058;2023-03-13T16:05:47;3.90;;;0.70;;
71125;SDS011;58785;55.566;38.058;2023-03-13T16:08:15;2.13;;;0.30;;
71125;SDS011;58785;55.566;38.058;2023-03-13T16:10:48;2.85;;;0.35;;
71125;SDS011;58785;55.566;38.058;2023-03-13T16:13:14;5.20;;;0.43;;
71125;SDS011;58785;55.566;38.058;2023-03-13T16:15:39;3.40;;;0.60;;
71125;SDS011;58785;55.566;38.058;2023-03-13T16:18:05;2.97;;;0.50;;
71125;SDS011;58785;55.566;38.058;2023-03-13T16:20:44;5.13;;;0.80;;
71125;SDS011;58785;55.566;38.058;2023-03-13T16:23:10;2.67;;;0.50;;
71125;SDS011;58785;55.566;38.058;2023-03-13T16:25:36;2.65;;;0.60;;
71125;SDS011;58785;55.566;38.058;2023-03-13T16:28:02;2.67;;;0.53;;
71125;SDS011;58785;55.566;38.058;2023-03-13T16:30:29;5.28;;;0.95;;
71125;SDS011;58785;55.566;38.058;2023-03-13T16:32:57;2.92;;;0.63;;
71125;SDS011;58785;55.566;38.058;2023-03-13T16:35:23;4.25;;;1.17;;
71125;SDS011;58785;55.566;38.058;2023-03-13T16:37:54;5.93;;;1.25;;
71125;SDS011;58785;55.566;38.058;2023-03-13T16:40:22;3.93;;;0.80;;
71125;SDS011;58785;55.566;38.058;2023-03-13T16:42:52;5.28;;;1.13;;
71125;SDS011;58785;55.566;38.058;2023-03-13T16:45:17;6.38;;;1.63;;
71125;SDS011;58785;55.566;38.058;2023-03-13T16:47:44;5.20;;;0.77;;
71125;SDS011;58785;55.566;38.058;2023-03-13T16:52:50;4.50;;;1.33;;
71125;SDS011;58785;55.566;38.058;2023-03-13T16:55:18;5.65;;;1.90;;
71125;SDS011;58785;55.566;38.058;2023-03-13T16:57:44;7.65;;;1.90;;
71125;SDS011;58785;55.566;38.058;2023-03-13T17:02:44;10.27;;;1.13;;
71125;SDS011;58785;55.566;38.058;2023-03-13T17:05:10;5.40;;;1.17;;
71125;SDS011;58785;55.566;38.058;2023-03-13T17:07:40;3.95;;;0.75;;